sensor_id;sensor_type;location;lat;lon;timestamp;P1;durP1;ratioP1;P2;durP2;ratioP2
7128;SDS011;3606;52.930;8.644;2023-07-29T00:01:26;18.30;;;12.20;;
7128;SDS011;3606;52.930;8.644;2023-07-29T00:03:52;21.03;;;14.00;;
7128;SDS011;3606;52.930;8.644;2023-07-29T00:06:17;16.00;;;12.70;;
7128;SDS011;3606;52.930;8.644;2023-07-29T00:08:43;21.37;;;15.00;;
7128;SDS011;3606;52.930;8.644;2023-07-29T00:11:08;21.60;;;14.67;;
7128;SDS011;3606;52.930;8.644;2023-07-29T00:13:34;19.57;;;14.20;;
7128;SDS011;3606;52.930;8.644;2023-07-29T00:16:00;22.97;;;15.17;;
7128;SDS011;3606;52.930;8.644;2023-07-29T00:18:25;19.23;;;13.73;;
7128;SDS011;3606;52.930;8.644;2023-07-29T00:20:52;24.93;;;15.43;;
7128;SDS011;3606;52.930;8.644;2023-07-29T00:23:18;23.00;;;14.77;;
7128;SDS011;3606;52.930;8.644;2023-07-29T00:25:46;23.23;;;14.60;;
7128;SDS011;3606;52.930;8.644;2023-07-29T00:28:12;19.43;;;13.47;;
7128;SDS011;3606;52.930;8.644;2023-07-29T00:30:38;15.27;;;11.70;;
7128;SDS011;3606;52.930;8.644;2023-07-29T00:33:03;14.70;;;11.70;;
7128;SDS011;3606;52.930;8.644;2023-07-29T00:35:29;16.27;;;11.77;;
7128;SDS011;3606;52.930;8.644;2023-07-29T00:37:54;16.80;;;12.63;;
7128;SDS011;3606;52.930;8.644;2023-07-29T00:40:20;18.87;;;13.27;;
7128;SDS011;3606;52.930;8.644;2023-07-29T00:42:47;19.30;;;12.80;;
7128;SDS011;3606;52.930;8.644;2023-07-29T00:45:13;16.10;;;12.17;;
7128;SDS011;3606;52.930;8.644;2023-07-29T00:47:38;18.13;;;12.43;;
7128;SDS011;3606;52.930;8.644;2023-07-29T00:50:05;18.27;;;11.53;;
7128;SDS011;3606;52.930;8.644;2023-07-29T00:52:31;18.23;;;13.63;;
7128;SDS011;3606;52.930;8.644;2023-07-29T00:54:57;18.43;;;12.70;;
7128;SDS011;3606;52.930;8.644;2023-07-29T00:57:23;17.43;;;12.57;;
7128;SDS011;3606;52.930;8.644;2023-07-29T00:59:50;18.33;;;13.80;;
7128;SDS011;3606;52.930;8.644;2023-07-29T01:02:16;20.17;;;14.10;;
7128;SDS011;3606;52.930;8.644;2023-07-29T01:04:41;21.13;;;15.33;;
7128;SDS011;3606;52.930;8.644;2023-07-29T01:15:16;26.10;;;18.10;;
7128;SDS011;3606;52.930;8.644;2023-07-29T01:17:46;27.83;;;17.23;;
7128;SDS011;3606;52.930;8.644;2023-07-29T01:20:14;26.10;;;18.93;;
7128;SDS011;3606;52.930;8.644;2023-07-29T01:22:41;29.40;;;18.63;;
7128;SDS011;3606;52.930;8.644;2023-07-29T01:25:07;30.10;;;19.03;;
7128;SDS011;3606;52.930;8.644;2023-07-29T01:27:33;24.53;;;16.90;;
7128;SDS011;3606;52.930;8.644;2023-07-29T01:29:58;27.50;;;16.43;;
7128;SDS011;3606;52.930;8.644;2023-07-29T01:37:37;17.27;;;13.03;;
7128;SDS011;3606;52.930;8.644;2023-07-29T01:40:04;16.53;;;12.27;;
7128;SDS011;3606;52.930;8.644;2023-07-29T01:42:33;14.53;;;11.47;;
7128;SDS011;3606;52.930;8.644;2023-07-29T01:44:59;19.30;;;12.83;;
7128;SDS011;3606;52.930;8.644;2023-07-29T01:47:25;27.43;;;16.63;;
7128;SDS011;3606;52.930;8.644;2023-07-29T01:49:51;28.47;;;18.97;;
7128;SDS011;3606;52.930;8.644;2023-07-29T01:52:16;33.43;;;20.13;;
7128;SDS011;3606;52.930;8.644;2023-07-29T01:54:42;33.10;;;19.57;;
7128;SDS011;3606;52.930;8.644;2023-07-29T01:57:08;37.17;;;19.77;;
7128;SDS011;3606;52.930;8.644;2023-07-29T01:59:34;29.03;;;20.67;;
7128;SDS011;3606;52.930;8.644;2023-07-29T02:02:00;28.77;;;19.83;;
7128;SDS011;3606;52.930;8.644;2023-07-29T02:04:25;30.10;;;19.97;;
7128;SDS011;3606;52.930;8.644;2023-07-29T02:06:51;34.73;;;19.87;;
7128;SDS011;3606;52.930;8.644;2023-07-29T02:09:16;29.83;;;19.53;;
7128;SDS011;3606;52.930;8.644;2023-07-29T02:11:42;26.03;;;17.57;;
7128;SDS011;3606;52.930;8.644;2023-07-29T02:14:07;28.60;;;18.80;;
7128;SDS011;3606;52.930;8.644;2023-07-29T02:16:33;31.83;;;20.30;;
7128;SDS011;3606;52.930;8.644;2023-07-29T02:18:59;25.43;;;17.83;;
7128;SDS011;3606;52.930;8.644;2023-07-29T02:21:25;26.70;;;19.37;;
7128;SDS011;3606;52.930;8.644;2023-07-29T02:23:50;29.23;;;19.20;;
7128;SDS011;3606;52.930;8.644;2023-07-29T02:26:16;33.03;;;21.57;;
7128;SDS011;3606;52.930;8.644;2023-07-29T02:28:42;33.10;;;20.17;;
7128;SDS011;3606;52.930;8.644;2023-07-29T02:31:23;30.23;;;19.63;;
7128;SDS011;3606;52.930;8.644;2023-07-29T02:33:50;26.30;;;19.10;;
7128;SDS011;3606;52.930;8.644;2023-07-29T02:36:16;28.80;;;18.57;;
7128;SDS011;3606;52.930;8.644;2023-07-29T02:38:42;34.77;;;22.47;;
7128;SDS011;3606;52.930;8.644;2023-07-29T02:41:09;35.83;;;22.57;;
7128;SDS011;3606;52.930;8.644;2023-07-29T02:43:35;28.10;;;19.83;;
7128;SDS011;3606;52.930;8.644;2023-07-29T02:46:04;33.23;;;20.60;;
7128;SDS011;3606;52.930;8.644;2023-07-29T02:48:30;35.57;;;21.77;;
7128;SDS011;3606;52.930;8.644;2023-07-29T02:50:55;29.53;;;19.70;;
7128;SDS011;3606;52.930;8.644;2023-07-29T02:53:21;32.53;;;20.93;;
7128;SDS011;3606;52.930;8.644;2023-07-29T02:55:48;33.30;;;19.67;;
7128;SDS011;3606;52.930;8.644;2023-07-29T02:58:14;30.93;;;20.07;;
7128;SDS011;3606;52.930;8.644;2023-07-29T03:00:39;29.70;;;18.83;;
7128;SDS011;3606;52.930;8.644;2023-07-29T03:03:08;29.20;;;17.60;;
7128;SDS011;3606;52.930;8.644;2023-07-29T03:05:34;24.57;;;17.03;;
7128;SDS011;3606;52.930;8.644;2023-07-29T03:08:00;29.17;;;17.73;;
7128;SDS011;3606;52.930;8.644;2023-07-29T03:10:26;26.43;;;18.23;;
7128;SDS011;3606;52.930;8.644;2023-07-29T03:12:54;26.40;;;16.83;;
7128;SDS011;3606;52.930;8.644;2023-07-29T03:15:24;23.10;;;15.50;;
7128;SDS011;3606;52.930;8.644;2023-07-29T03:17:50;26.43;;;16.87;;
7128;SDS011;3606;52.930;8.644;2023-07-29T03:20:16;24.30;;;15.07;;
7128;SDS011;3606;52.930;8.644;2023-07-29T03:22:45;29.77;;;18.20;;
7128;SDS011;3606;52.930;8.644;2023-07-29T03:25:11;25.23;;;16.90;;
7128;SDS011;3606;52.930;8.644;2023-07-29T03:27:36;29.13;;;18.17;;
7128;SDS011;3606;52.930;8.644;2023-07-29T03:30:03;26.90;;;17.07;;
7128;SDS011;3606;52.930;8.644;2023-07-29T03:32:29;30.77;;;18.23;;
7128;SDS011;3606;52.930;8.644;2023-07-29T03:34:54;32.27;;;19.40;;
7128;SDS011;3606;52.930;8.644;2023-07-29T03:37:20;30.03;;;18.43;;
7128;SDS011;3606;52.930;8.644;2023-07-29T03:39:46;28.67;;;17.10;;
7128;SDS011;3606;52.930;8.644;2023-07-29T03:42:12;23.70;;;16.10;;
7128;SDS011;3606;52.930;8.644;2023-07-29T03:44:38;24.43;;;15.60;;
7128;SDS011;3606;52.930;8.644;2023-07-29T03:47:04;20.90;;;14.37;;
7128;SDS011;3606;52.930;8.644;2023-07-29T03:49:31;24.50;;;14.73;;
7128;SDS011;3606;52.930;8.644;2023-07-29T03:51:56;24.90;;;14.57;;
7128;SDS011;3606;52.930;8.644;2023-07-29T03:54:22;22.47;;;15.70;;
7128;SDS011;3606;52.930;8.644;2023-07-29T03:56:48;20.93;;;13.40;;
7128;SDS011;3606;52.930;8.644;2023-07-29T03:59:13;27.37;;;15.37;;
7128;SDS011;3606;52.930;8.644;2023-07-29T04:01:39;22.50;;;14.27;;
7128;SDS011;3606;52.930;8.644;2023-07-29T04:04:04;24.27;;;15.30;;
7128;SDS011;3606;52.930;8.644;2023-07-29T04:06:30;25.03;;;16.40;;
7128;SDS011;3606;52.930;8.644;2023-07-29T04:08:56;22.23;;;15.37;;
7128;SDS011;3606;52.930;8.644;2023-07-29T04:11:22;25.67;;;16.63;;
7128;SDS011;3606;52.930;8.644;2023-07-29T04:13:48;21.63;;;14.23;;
7128;SDS011;3606;52.930;8.644;2023-07-29T04:16:13;22.43;;;14.60;;
7128;SDS011;3606;52.930;8.644;2023-07-29T04:18:39;22.43;;;15.33;;
7128;SDS011;3606;52.930;8.644;2023-07-29T04:21:05;23.33;;;14.73;;
7128;SDS011;3606;52.930;8.644;2023-07-29T04:23:30;22.20;;;14.83;;
7128;SDS011;3606;52.930;8.644;2023-07-29T04:25:56;26.03;;;15.63;;
7128;SDS011;3606;52.930;8.644;2023-07-29T04:28:21;24.43;;;15.97;;
7128;SDS011;3606;52.930;8.644;2023-07-29T04:30:47;28.10;;;15.47;;
7128;SDS011;3606;52.930;8.644;2023-07-29T04:33:12;27.03;;;16.13;;
7128;SDS011;3606;52.930;8.644;2023-07-29T04:35:38;20.50;;;14.37;;
7128;SDS011;3606;52.930;8.644;2023-07-29T04:38:04;26.00;;;15.03;;
7128;SDS011;3606;52.930;8.644;2023-07-29T04:40:29;26.63;;;16.67;;
7128;SDS011;3606;52.930;8.644;2023-07-29T04:43:00;22.83;;;15.40;;
7128;SDS011;3606;52.930;8.644;2023-07-29T04:45:28;25.23;;;15.77;;
7128;SDS011;3606;52.930;8.644;2023-07-29T04:47:54;26.47;;;16.13;;
7128;SDS011;3606;52.930;8.644;2023-07-29T04:50:20;22.97;;;15.37;;
7128;SDS011;3606;52.930;8.644;2023-07-29T04:52:45;25.20;;;15.77;;
7128;SDS011;3606;52.930;8.644;2023-07-29T04:55:11;25.13;;;16.90;;
7128;SDS011;3606;52.930;8.644;2023-07-29T04:57:36;25.23;;;17.10;;
7128;SDS011;3606;52.930;8.644;2023-07-29T05:00:02;23.10;;;15.03;;
7128;SDS011;3606;52.930;8.644;2023-07-29T05:02:28;19.43;;;15.10;;
7128;SDS011;3606;52.930;8.644;2023-07-29T05:04:54;26.27;;;15.63;;
7128;SDS011;3606;52.930;8.644;2023-07-29T05:07:19;24.53;;;16.00;;
7128;SDS011;3606;52.930;8.644;2023-07-29T05:09:45;27.80;;;17.40;;
7128;SDS011;3606;52.930;8.644;2023-07-29T05:12:10;28.80;;;17.50;;
7128;SDS011;3606;52.930;8.644;2023-07-29T05:14:36;23.30;;;15.37;;
7128;SDS011;3606;52.930;8.644;2023-07-29T05:17:01;32.73;;;17.90;;
7128;SDS011;3606;52.930;8.644;2023-07-29T05:19:27;26.43;;;17.23;;
7128;SDS011;3606;52.930;8.644;2023-07-29T05:21:53;21.10;;;16.77;;
7128;SDS011;3606;52.930;8.644;2023-07-29T05:24:18;20.20;;;15.60;;
7128;SDS011;3606;52.930;8.644;2023-07-29T05:26:44;20.40;;;16.23;;
7128;SDS011;3606;52.930;8.644;2023-07-29T05:29:09;22.00;;;15.23;;
7128;SDS011;3606;52.930;8.644;2023-07-29T05:31:35;18.93;;;14.33;;
7128;SDS011;3606;52.930;8.644;2023-07-29T05:34:00;20.20;;;14.67;;
7128;SDS011;3606;52.930;8.644;2023-07-29T05:36:26;18.73;;;14.23;;
7128;SDS011;3606;52.930;8.644;2023-07-29T05:38:52;18.37;;;13.50;;
7128;SDS011;3606;52.930;8.644;2023-07-29T05:41:17;18.67;;;14.70;;
7128;SDS011;3606;52.930;8.644;2023-07-29T05:43:43;23.33;;;15.17;;
7128;SDS011;3606;52.930;8.644;2023-07-29T05:46:10;19.67;;;14.30;;
7128;SDS011;3606;52.930;8.644;2023-07-29T05:48:35;18.90;;;15.13;;
7128;SDS011;3606;52.930;8.644;2023-07-29T05:51:01;17.07;;;14.93;;
7128;SDS011;3606;52.930;8.644;2023-07-29T05:53:27;21.17;;;15.20;;
7128;SDS011;3606;52.930;8.644;2023-07-29T05:55:52;20.30;;;15.97;;
7128;SDS011;3606;52.930;8.644;2023-07-29T05:58:18;20.37;;;15.67;;
7128;SDS011;3606;52.930;8.644;2023-07-29T06:00:43;23.17;;;15.93;;
7128;SDS011;3606;52.930;8.644;2023-07-29T06:03:09;19.50;;;16.30;;
7128;SDS011;3606;52.930;8.644;2023-07-29T06:05:34;19.77;;;15.63;;
7128;SDS011;3606;52.930;8.644;2023-07-29T06:08:00;20.07;;;17.23;;
7128;SDS011;3606;52.930;8.644;2023-07-29T06:10:26;18.10;;;16.20;;
7128;SDS011;3606;52.930;8.644;2023-07-29T06:12:51;21.90;;;15.93;;
7128;SDS011;3606;52.930;8.644;2023-07-29T06:15:17;19.30;;;15.57;;
7128;SDS011;3606;52.930;8.644;2023-07-29T06:17:42;18.53;;;15.13;;
7128;SDS011;3606;52.930;8.644;2023-07-29T06:20:08;20.70;;;17.23;;
7128;SDS011;3606;52.930;8.644;2023-07-29T06:22:34;17.10;;;15.30;;
7128;SDS011;3606;52.930;8.644;2023-07-29T06:24:59;22.83;;;16.73;;
7128;SDS011;3606;52.930;8.644;2023-07-29T06:27:25;22.10;;;16.70;;
7128;SDS011;3606;52.930;8.644;2023-07-29T06:29:51;20.67;;;16.33;;
7128;SDS011;3606;52.930;8.644;2023-07-29T06:32:16;20.80;;;17.33;;
7128;SDS011;3606;52.930;8.644;2023-07-29T06:34:42;20.30;;;16.27;;
7128;SDS011;3606;52.930;8.644;2023-07-29T06:37:07;19.90;;;16.27;;
7128;SDS011;3606;52.930;8.644;2023-07-29T06:39:33;19.57;;;16.07;;
7128;SDS011;3606;52.930;8.644;2023-07-29T06:41:58;18.77;;;15.53;;
7128;SDS011;3606;52.930;8.644;2023-07-29T06:44:24;17.90;;;15.40;;
7128;SDS011;3606;52.930;8.644;2023-07-29T06:46:50;17.33;;;15.50;;
7128;SDS011;3606;52.930;8.644;2023-07-29T06:49:15;17.17;;;15.37;;
7128;SDS011;3606;52.930;8.644;2023-07-29T06:51:41;16.73;;;15.03;;
7128;SDS011;3606;52.930;8.644;2023-07-29T06:54:06;17.13;;;14.27;;
7128;SDS011;3606;52.930;8.644;2023-07-29T06:56:32;15.57;;;13.67;;
7128;SDS011;3606;52.930;8.644;2023-07-29T06:58:57;18.83;;;14.60;;
7128;SDS011;3606;52.930;8.644;2023-07-29T07:01:23;15.50;;;13.17;;
7128;SDS011;3606;52.930;8.644;2023-07-29T07:03:48;15.17;;;12.73;;
7128;SDS011;3606;52.930;8.644;2023-07-29T07:06:14;16.33;;;13.23;;
7128;SDS011;3606;52.930;8.644;2023-07-29T07:08:40;14.87;;;12.30;;
7128;SDS011;3606;52.930;8.644;2023-07-29T07:11:06;13.17;;;11.40;;
7128;SDS011;3606;52.930;8.644;2023-07-29T07:13:33;15.53;;;11.80;;
7128;SDS011;3606;52.930;8.644;2023-07-29T07:15:59;12.73;;;11.53;;
7128;SDS011;3606;52.930;8.644;2023-07-29T07:18:24;14.40;;;11.43;;
7128;SDS011;3606;52.930;8.644;2023-07-29T07:20:50;13.60;;;11.50;;
7128;SDS011;3606;52.930;8.644;2023-07-29T07:23:17;11.47;;;9.97;;
7128;SDS011;3606;52.930;8.644;2023-07-29T07:25:43;14.60;;;10.63;;
7128;SDS011;3606;52.930;8.644;2023-07-29T07:28:09;10.40;;;9.40;;
7128;SDS011;3606;52.930;8.644;2023-07-29T07:30:35;11.83;;;9.67;;
7128;SDS011;3606;52.930;8.644;2023-07-29T07:33:04;10.17;;;9.17;;
7128;SDS011;3606;52.930;8.644;2023-07-29T07:35:29;12.90;;;9.13;;
7128;SDS011;3606;52.930;8.644;2023-07-29T07:37:55;13.43;;;10.37;;
7128;SDS011;3606;52.930;8.644;2023-07-29T07:40:21;11.23;;;9.80;;
7128;SDS011;3606;52.930;8.644;2023-07-29T07:42:46;13.07;;;9.47;;
7128;SDS011;3606;52.930;8.644;2023-07-29T07:45:12;10.77;;;9.33;;
7128;SDS011;3606;52.930;8.644;2023-07-29T07:47:37;10.47;;;9.30;;
7128;SDS011;3606;52.930;8.644;2023-07-29T07:50:03;11.07;;;9.13;;
7128;SDS011;3606;52.930;8.644;2023-07-29T07:52:29;9.20;;;8.20;;
7128;SDS011;3606;52.930;8.644;2023-07-29T07:54:54;10.80;;;7.97;;
7128;SDS011;3606;52.930;8.644;2023-07-29T07:57:21;7.43;;;6.70;;
7128;SDS011;3606;52.930;8.644;2023-07-29T07:59:47;8.60;;;7.73;;
7128;SDS011;3606;52.930;8.644;2023-07-29T08:02:12;8.37;;;7.20;;
7128;SDS011;3606;52.930;8.644;2023-07-29T08:04:38;7.57;;;6.80;;
7128;SDS011;3606;52.930;8.644;2023-07-29T08:07:03;8.70;;;7.57;;
7128;SDS011;3606;52.930;8.644;2023-07-29T08:09:29;7.68;;;6.25;;
7128;SDS011;3606;52.930;8.644;2023-07-29T08:11:55;8.77;;;6.88;;
7128;SDS011;3606;52.930;8.644;2023-07-29T08:14:21;8.73;;;6.40;;
7128;SDS011;3606;52.930;8.644;2023-07-29T08:16:46;12.05;;;6.00;;
7128;SDS011;3606;52.930;8.644;2023-07-29T08:19:12;6.90;;;6.18;;
7128;SDS011;3606;52.930;8.644;2023-07-29T08:21:37;6.20;;;5.60;;
7128;SDS011;3606;52.930;8.644;2023-07-29T08:24:03;8.98;;;5.90;;
7128;SDS011;3606;52.930;8.644;2023-07-29T08:26:29;5.53;;;5.00;;
7128;SDS011;3606;52.930;8.644;2023-07-29T08:28:54;5.78;;;5.28;;
7128;SDS011;3606;52.930;8.644;2023-07-29T08:31:20;7.68;;;5.90;;
7128;SDS011;3606;52.930;8.644;2023-07-29T08:33:46;6.43;;;5.55;;
7128;SDS011;3606;52.930;8.644;2023-07-29T08:36:11;7.40;;;5.90;;
7128;SDS011;3606;52.930;8.644;2023-07-29T08:38:37;7.57;;;6.78;;
7128;SDS011;3606;52.930;8.644;2023-07-29T08:43:52;8.25;;;5.80;;
7128;SDS011;3606;52.930;8.644;2023-07-29T08:46:26;7.32;;;5.65;;
7128;SDS011;3606;52.930;8.644;2023-07-29T08:48:53;8.07;;;5.80;;
7128;SDS011;3606;52.930;8.644;2023-07-29T08:51:20;7.25;;;6.28;;
7128;SDS011;3606;52.930;8.644;2023-07-29T08:53:48;6.60;;;6.00;;
7128;SDS011;3606;52.930;8.644;2023-07-29T08:56:15;7.68;;;6.03;;
7128;SDS011;3606;52.930;8.644;2023-07-29T08:58:40;5.80;;;5.18;;
7128;SDS011;3606;52.930;8.644;2023-07-29T09:01:06;6.55;;;5.85;;
7128;SDS011;3606;52.930;8.644;2023-07-29T09:03:32;6.45;;;5.85;;
7128;SDS011;3606;52.930;8.644;2023-07-29T09:05:58;6.60;;;5.40;;
7128;SDS011;3606;52.930;8.644;2023-07-29T09:08:26;6.40;;;5.63;;
7128;SDS011;3606;52.930;8.644;2023-07-29T09:10:52;5.22;;;4.72;;
7128;SDS011;3606;52.930;8.644;2023-07-29T09:13:19;6.15;;;5.55;;
7128;SDS011;3606;52.930;8.644;2023-07-29T09:15:45;6.53;;;5.55;;
7128;SDS011;3606;52.930;8.644;2023-07-29T09:18:11;5.40;;;5.00;;
7128;SDS011;3606;52.930;8.644;2023-07-29T09:20:39;6.40;;;5.32;;
7128;SDS011;3606;52.930;8.644;2023-07-29T09:23:06;7.10;;;5.53;;
7128;SDS011;3606;52.930;8.644;2023-07-29T09:25:35;4.93;;;4.43;;
7128;SDS011;3606;52.930;8.644;2023-07-29T09:28:01;5.32;;;4.82;;
7128;SDS011;3606;52.930;8.644;2023-07-29T09:30:32;5.95;;;4.30;;
7128;SDS011;3606;52.930;8.644;2023-07-29T09:32:58;5.97;;;4.22;;
7128;SDS011;3606;52.930;8.644;2023-07-29T09:35:24;6.28;;;4.28;;
7128;SDS011;3606;52.930;8.644;2023-07-29T09:37:52;3.70;;;3.33;;
7128;SDS011;3606;52.930;8.644;2023-07-29T09:40:18;5.15;;;3.30;;
7128;SDS011;3606;52.930;8.644;2023-07-29T09:42:47;3.20;;;2.97;;
7128;SDS011;3606;52.930;8.644;2023-07-29T09:45:21;3.47;;;3.15;;
7128;SDS011;3606;52.930;8.644;2023-07-29T09:47:48;2.95;;;2.75;;
7128;SDS011;3606;52.930;8.644;2023-07-29T09:50:14;3.22;;;2.92;;
7128;SDS011;3606;52.930;8.644;2023-07-29T09:52:40;3.25;;;2.88;;
7128;SDS011;3606;52.930;8.644;2023-07-29T09:55:07;3.50;;;3.20;;
7128;SDS011;3606;52.930;8.644;2023-07-29T09:57:34;3.03;;;2.70;;
7128;SDS011;3606;52.930;8.644;2023-07-29T10:00:01;3.50;;;3.20;;
7128;SDS011;3606;52.930;8.644;2023-07-29T10:02:30;3.45;;;2.80;;
7128;SDS011;3606;52.930;8.644;2023-07-29T10:04:56;3.53;;;2.83;;
7128;SDS011;3606;52.930;8.644;2023-07-29T10:07:22;3.38;;;2.97;;
7128;SDS011;3606;52.930;8.644;2023-07-29T10:09:49;2.83;;;2.58;;
7128;SDS011;3606;52.930;8.644;2023-07-29T10:12:17;2.40;;;2.05;;
7128;SDS011;3606;52.930;8.644;2023-07-29T10:14:43;3.15;;;2.47;;
7128;SDS011;3606;52.930;8.644;2023-07-29T10:17:12;4.43;;;3.00;;
7128;SDS011;3606;52.930;8.644;2023-07-29T10:19:40;4.38;;;2.72;;
7128;SDS011;3606;52.930;8.644;2023-07-29T10:22:07;3.15;;;2.70;;
7128;SDS011;3606;52.930;8.644;2023-07-29T10:24:35;3.10;;;2.65;;
7128;SDS011;3606;52.930;8.644;2023-07-29T10:27:06;3.30;;;2.30;;
7128;SDS011;3606;52.930;8.644;2023-07-29T10:29:36;2.55;;;2.33;;
7128;SDS011;3606;52.930;8.644;2023-07-29T10:32:04;3.65;;;2.42;;
7128;SDS011;3606;52.930;8.644;2023-07-29T10:34:31;2.40;;;2.20;;
7128;SDS011;3606;52.930;8.644;2023-07-29T10:36:59;3.08;;;2.53;;
7128;SDS011;3606;52.930;8.644;2023-07-29T10:39:25;6.20;;;2.50;;
7128;SDS011;3606;52.930;8.644;2023-07-29T10:42:01;2.88;;;2.30;;
7128;SDS011;3606;52.930;8.644;2023-07-29T10:50:02;2.58;;;2.13;;
7128;SDS011;3606;52.930;8.644;2023-07-29T10:52:48;2.65;;;2.22;;
7128;SDS011;3606;52.930;8.644;2023-07-29T10:55:29;3.05;;;2.13;;
7128;SDS011;3606;52.930;8.644;2023-07-29T11:00:50;2.40;;;2.05;;
7128;SDS011;3606;52.930;8.644;2023-07-29T11:03:15;2.50;;;2.10;;
7128;SDS011;3606;52.930;8.644;2023-07-29T11:05:43;6.60;;;2.20;;
7128;SDS011;3606;52.930;8.644;2023-07-29T11:08:20;2.67;;;2.10;;
7128;SDS011;3606;52.930;8.644;2023-07-29T11:11:03;2.17;;;1.98;;
7128;SDS011;3606;52.930;8.644;2023-07-29T11:13:36;1.98;;;1.75;;
7128;SDS011;3606;52.930;8.644;2023-07-29T11:16:03;3.28;;;2.10;;
7128;SDS011;3606;52.930;8.644;2023-07-29T11:18:31;2.67;;;2.10;;
7128;SDS011;3606;52.930;8.644;2023-07-29T11:20:59;2.10;;;1.90;;
7128;SDS011;3606;52.930;8.644;2023-07-29T11:23:32;2.35;;;1.95;;
7128;SDS011;3606;52.930;8.644;2023-07-29T11:26:00;3.40;;;2.00;;
7128;SDS011;3606;52.930;8.644;2023-07-29T11:28:26;3.47;;;2.30;;
7128;SDS011;3606;52.930;8.644;2023-07-29T11:30:56;2.45;;;1.90;;
7128;SDS011;3606;52.930;8.644;2023-07-29T11:33:25;2.45;;;2.10;;
7128;SDS011;3606;52.930;8.644;2023-07-29T11:35:53;2.05;;;1.85;;
7128;SDS011;3606;52.930;8.644;2023-07-29T11:38:19;2.17;;;1.83;;
7128;SDS011;3606;52.930;8.644;2023-07-29T11:43:25;2.25;;;2.05;;
7128;SDS011;3606;52.930;8.644;2023-07-29T11:45:51;2.22;;;1.67;;
7128;SDS011;3606;52.930;8.644;2023-07-29T11:48:18;3.00;;;1.83;;
7128;SDS011;3606;52.930;8.644;2023-07-29T11:50:51;3.17;;;2.00;;
7128;SDS011;3606;52.930;8.644;2023-07-29T11:53:19;1.98;;;1.80;;
7128;SDS011;3606;52.930;8.644;2023-07-29T11:55:49;2.00;;;1.60;;
7128;SDS011;3606;52.930;8.644;2023-07-29T11:58:16;1.85;;;1.67;;
7128;SDS011;3606;52.930;8.644;2023-07-29T12:00:42;2.78;;;1.75;;
7128;SDS011;3606;52.930;8.644;2023-07-29T12:03:08;2.63;;;1.92;;
7128;SDS011;3606;52.930;8.644;2023-07-29T12:05:35;2.25;;;1.77;;
7128;SDS011;3606;52.930;8.644;2023-07-29T12:08:01;2.80;;;1.70;;
7128;SDS011;3606;52.930;8.644;2023-07-29T12:10:27;3.40;;;1.65;;
7128;SDS011;3606;52.930;8.644;2023-07-29T12:12:53;3.30;;;1.80;;
7128;SDS011;3606;52.930;8.644;2023-07-29T12:15:28;3.25;;;1.83;;
7128;SDS011;3606;52.930;8.644;2023-07-29T12:17:58;2.08;;;1.85;;
7128;SDS011;3606;52.930;8.644;2023-07-29T12:20:25;4.88;;;2.10;;
7128;SDS011;3606;52.930;8.644;2023-07-29T12:22:57;3.38;;;1.90;;
7128;SDS011;3606;52.930;8.644;2023-07-29T12:25:26;2.03;;;1.80;;
7128;SDS011;3606;52.930;8.644;2023-07-29T12:27:53;2.90;;;1.85;;
7128;SDS011;3606;52.930;8.644;2023-07-29T12:30:22;3.28;;;1.75;;
7128;SDS011;3606;52.930;8.644;2023-07-29T12:32:48;3.17;;;1.55;;
7128;SDS011;3606;52.930;8.644;2023-07-29T12:35:13;3.38;;;2.03;;
7128;SDS011;3606;52.930;8.644;2023-07-29T12:37:39;2.17;;;1.85;;
7128;SDS011;3606;52.930;8.644;2023-07-29T12:40:08;2.60;;;1.92;;
7128;SDS011;3606;52.930;8.644;2023-07-29T12:42:54;3.22;;;2.10;;
7128;SDS011;3606;52.930;8.644;2023-07-29T12:45:20;2.13;;;1.80;;
7128;SDS011;3606;52.930;8.644;2023-07-29T12:47:51;4.75;;;1.83;;
7128;SDS011;3606;52.930;8.644;2023-07-29T12:50:17;2.05;;;1.90;;
7128;SDS011;3606;52.930;8.644;2023-07-29T12:52:43;3.03;;;1.77;;
7128;SDS011;3606;52.930;8.644;2023-07-29T12:55:08;2.25;;;1.77;;
7128;SDS011;3606;52.930;8.644;2023-07-29T12:57:37;2.22;;;1.70;;
7128;SDS011;3606;52.930;8.644;2023-07-29T13:00:04;2.00;;;1.80;;
7128;SDS011;3606;52.930;8.644;2023-07-29T13:02:31;2.70;;;1.70;;
7128;SDS011;3606;52.930;8.644;2023-07-29T13:04:57;4.32;;;2.10;;
7128;SDS011;3606;52.930;8.644;2023-07-29T13:07:22;2.33;;;1.60;;
7128;SDS011;3606;52.930;8.644;2023-07-29T13:09:48;2.03;;;1.80;;
7128;SDS011;3606;52.930;8.644;2023-07-29T13:12:13;2.10;;;1.90;;
7128;SDS011;3606;52.930;8.644;2023-07-29T13:14:39;2.05;;;1.73;;
7128;SDS011;3606;52.930;8.644;2023-07-29T13:17:04;2.00;;;1.80;;
7128;SDS011;3606;52.930;8.644;2023-07-29T13:19:30;2.40;;;1.90;;
7128;SDS011;3606;52.930;8.644;2023-07-29T13:21:56;3.10;;;2.00;;
7128;SDS011;3606;52.930;8.644;2023-07-29T13:24:21;3.28;;;1.88;;
7128;SDS011;3606;52.930;8.644;2023-07-29T13:26:47;1.83;;;1.73;;
7128;SDS011;3606;52.930;8.644;2023-07-29T13:29:12;1.77;;;1.67;;
7128;SDS011;3606;52.930;8.644;2023-07-29T13:31:38;2.05;;;1.73;;
7128;SDS011;3606;52.930;8.644;2023-07-29T13:34:03;2.53;;;1.70;;
7128;SDS011;3606;52.930;8.644;2023-07-29T13:36:29;1.98;;;1.80;;
7128;SDS011;3606;52.930;8.644;2023-07-29T13:38:54;6.05;;;2.35;;
7128;SDS011;3606;52.930;8.644;2023-07-29T13:41:20;2.10;;;1.73;;
7128;SDS011;3606;52.930;8.644;2023-07-29T13:43:46;1.80;;;1.70;;
7128;SDS011;3606;52.930;8.644;2023-07-29T13:46:11;2.75;;;1.95;;
7128;SDS011;3606;52.930;8.644;2023-07-29T13:48:37;2.90;;;1.65;;
7128;SDS011;3606;52.930;8.644;2023-07-29T13:51:02;2.38;;;2.10;;
7128;SDS011;3606;52.930;8.644;2023-07-29T13:53:28;2.20;;;1.80;;
7128;SDS011;3606;52.930;8.644;2023-07-29T13:55:53;2.20;;;1.60;;
7128;SDS011;3606;52.930;8.644;2023-07-29T13:58:19;1.60;;;1.50;;
7128;SDS011;3606;52.930;8.644;2023-07-29T14:00:44;2.45;;;1.70;;
7128;SDS011;3606;52.930;8.644;2023-07-29T14:03:10;3.17;;;1.98;;
7128;SDS011;3606;52.930;8.644;2023-07-29T14:05:35;1.95;;;1.85;;
7128;SDS011;3606;52.930;8.644;2023-07-29T14:08:01;1.85;;;1.65;;
7128;SDS011;3606;52.930;8.644;2023-07-29T14:10:27;2.55;;;2.30;;
7128;SDS011;3606;52.930;8.644;2023-07-29T14:12:52;2.75;;;2.20;;
7128;SDS011;3606;52.930;8.644;2023-07-29T14:15:18;2.85;;;2.50;;
7128;SDS011;3606;52.930;8.644;2023-07-29T14:17:43;2.30;;;2.13;;
7128;SDS011;3606;52.930;8.644;2023-07-29T14:20:09;2.42;;;2.05;;
7128;SDS011;3606;52.930;8.644;2023-07-29T14:22:35;2.55;;;2.13;;
7128;SDS011;3606;52.930;8.644;2023-07-29T14:25:01;2.30;;;2.10;;
7128;SDS011;3606;52.930;8.644;2023-07-29T14:27:27;2.25;;;1.80;;
7128;SDS011;3606;52.930;8.644;2023-07-29T14:29:52;2.55;;;2.20;;
7128;SDS011;3606;52.930;8.644;2023-07-29T14:32:18;2.85;;;2.22;;
7128;SDS011;3606;52.930;8.644;2023-07-29T14:34:43;3.25;;;2.28;;
7128;SDS011;3606;52.930;8.644;2023-07-29T14:37:09;2.50;;;2.30;;
7128;SDS011;3606;52.930;8.644;2023-07-29T14:39:35;4.05;;;2.17;;
7128;SDS011;3606;52.930;8.644;2023-07-29T14:42:00;2.50;;;2.22;;
7128;SDS011;3606;52.930;8.644;2023-07-29T14:44:26;3.50;;;2.35;;
7128;SDS011;3606;52.930;8.644;2023-07-29T14:46:51;3.38;;;2.10;;
7128;SDS011;3606;52.930;8.644;2023-07-29T14:49:18;2.42;;;2.22;;
7128;SDS011;3606;52.930;8.644;2023-07-29T14:51:44;2.90;;;2.30;;
7128;SDS011;3606;52.930;8.644;2023-07-29T14:54:09;4.50;;;2.42;;
7128;SDS011;3606;52.930;8.644;2023-07-29T14:56:35;2.85;;;2.35;;
7128;SDS011;3606;52.930;8.644;2023-07-29T14:59:00;4.05;;;2.50;;
7128;SDS011;3606;52.930;8.644;2023-07-29T15:01:26;3.28;;;2.47;;
7128;SDS011;3606;52.930;8.644;2023-07-29T15:03:51;3.85;;;2.50;;
7128;SDS011;3606;52.930;8.644;2023-07-29T15:06:17;3.00;;;2.60;;
7128;SDS011;3606;52.930;8.644;2023-07-29T15:08:43;2.60;;;2.40;;
7128;SDS011;3606;52.930;8.644;2023-07-29T15:11:08;3.75;;;2.55;;
7128;SDS011;3606;52.930;8.644;2023-07-29T15:13:34;3.78;;;2.70;;
7128;SDS011;3606;52.930;8.644;2023-07-29T15:15:59;2.67;;;2.28;;
7128;SDS011;3606;52.930;8.644;2023-07-29T15:18:25;2.40;;;2.20;;
7128;SDS011;3606;52.930;8.644;2023-07-29T15:20:54;2.58;;;2.33;;
7128;SDS011;3606;52.930;8.644;2023-07-29T15:23:21;5.22;;;2.47;;